Time;durP1;ratioP1;P1;durP2;ratioP2;P2;SDS_P1;SDS_P2;PMS_P1;PMS_P2;Temp;Humidity;BMP_temperature;BMP_pressure;BME280_temperature;BME280_humidity;BME280_pressure;Samples;Min_cycle;Max_cycle;Signal;HPM_P1;HPM_P2
2024/01/31 00:01:53;;;;;;;27.83;23.95;;;;;;;;;;10107087;28;20041;-76
2024/01/31 00:06:50;;;;;;;27.40;22.80;;;;;;;;;;10106930;28;20045;-76
2024/01/31 00:11:42;;;;;;;23.75;21.02;;;;;;;;;;10106106;28;20045;-76
2024/01/31 00:16:34;;;;;;;28.60;21.30;;;;;;;;;;10106054;28;20445;-76
2024/01/31 00:21:26;;;;;;;26.10;21.08;;;;;;;;;;10105722;28;20037;-76
2024/01/31 00:26:19;;;;;;;29.60;21.25;;;;;;;;;;10105596;28;20045;-76
2024/01/31 00:31:14;;;;;;;26.88;20.70;;;;;;;;;;10104585;28;20048;-76
2024/01/31 00:36:06;;;;;;;28.75;20.75;;;;;;;;;;10105555;28;20421;-76
2024/01/31 00:40:58;;;;;;;23.27;20.27;;;;;;;;;;10105096;28;20341;-76
2024/01/31 00:45:50;;;;;;;26.45;20.38;;;;;;;;;;10102401;28;20075;-76
2024/01/31 00:50:42;;;;;;;24.15;19.40;;;;;;;;;;10105265;28;20416;-76
2024/01/31 00:55:34;;;;;;;24.70;19.17;;;;;;;;;;10105066;28;20484;-76
2024/01/31 01:00:26;;;;;;;25.88;17.33;;;;;;;;;;10104052;28;20045;-76
2024/01/31 01:05:20;;;;;;;24.63;17.60;;;;;;;;;;10104672;28;20041;-76
2024/01/31 01:10:12;;;;;;;25.38;18.67;;;;;;;;;;10104589;28;20056;-77
2024/01/31 01:15:08;;;;;;;23.42;17.65;;;;;;;;;;10103278;28;20338;-76
2024/01/31 01:20:08;;;;;;;25.55;16.95;;;;;;;;;;10081422;28;20099;-76
2024/01/31 01:25:00;;;;;;;28.02;19.17;;;;;;;;;;10088987;28;20110;-76
2024/01/31 01:29:53;;;;;;;24.20;16.92;;;;;;;;;;10071390;28;20085;-76
2024/01/31 01:34:46;;;;;;;27.58;18.33;;;;;;;;;;10092990;28;20049;-76
2024/01/31 01:39:39;;;;;;;20.92;14.98;;;;;;;;;;10091978;28;20061;-76
2024/01/31 01:44:33;;;;;;;24.85;16.45;;;;;;;;;;10068940;28;20064;-76
2024/01/31 01:49:26;;;;;;;23.92;16.80;;;;;;;;;;10099826;28;20040;-76
2024/01/31 01:54:18;;;;;;;30.65;19.27;;;;;;;;;;10102790;28;20045;-76
2024/01/31 01:59:11;;;;;;;30.67;18.88;;;;;;;;;;10101646;28;20045;-76
2024/01/31 02:04:03;;;;;;;26.05;18.35;;;;;;;;;;10099840;28;20043;-76
2024/01/31 02:08:56;;;;;;;28.27;19.35;;;;;;;;;;10101793;28;20432;-76
2024/01/31 02:13:48;;;;;;;27.00;18.25;;;;;;;;;;10101541;28;20048;-77
2024/01/31 02:18:40;;;;;;;24.73;16.40;;;;;;;;;;10097937;28;20083;-76
2024/01/31 02:23:32;;;;;;;23.52;16.65;;;;;;;;;;10092619;28;20049;-76
2024/01/31 02:28:24;;;;;;;18.75;14.57;;;;;;;;;;10101552;28;20041;-76
2024/01/31 02:33:16;;;;;;;19.27;15.20;;;;;;;;;;10101254;28;20037;-76
2024/01/31 02:38:08;;;;;;;22.05;15.80;;;;;;;;;;10101210;28;20053;-76
2024/01/31 02:43:00;;;;;;;24.58;16.33;;;;;;;;;;10101185;28;20379;-76
2024/01/31 02:47:52;;;;;;;21.45;15.38;;;;;;;;;;10099870;28;20490;-76
2024/01/31 02:52:44;;;;;;;20.17;15.35;;;;;;;;;;10100237;28;20045;-75
2024/01/31 02:57:36;;;;;;;21.13;15.50;;;;;;;;;;10100770;28;20045;-76
2024/01/31 03:02:32;;;;;;;23.45;18.20;;;;;;;;;;10101298;28;20080;-77
2024/01/31 03:07:24;;;;;;;22.83;15.60;;;;;;;;;;10097513;28;20140;-76
2024/01/31 03:12:16;;;;;;;26.25;15.40;;;;;;;;;;10098749;28;20472;-76
2024/01/31 03:17:08;;;;;;;21.58;15.50;;;;;;;;;;10097361;28;20113;-76
2024/01/31 03:22:00;;;;;;;23.02;16.10;;;;;;;;;;10099193;28;20049;-76
2024/01/31 03:26:51;;;;;;;20.13;14.77;;;;;;;;;;10098830;28;20053;-76
2024/01/31 03:31:43;;;;;;;22.00;16.50;;;;;;;;;;10093520;28;20037;-76
2024/01/31 03:36:35;;;;;;;20.58;14.98;;;;;;;;;;10089225;28;20403;-76
2024/01/31 03:41:28;;;;;;;21.63;15.35;;;;;;;;;;10082782;28;20116;-76
2024/01/31 03:46:20;;;;;;;19.27;13.60;;;;;;;;;;10082324;28;20047;-76
2024/01/31 03:51:22;;;;;;;23.10;16.02;;;;;;;;;;10095558;28;20052;-76
2024/01/31 03:56:15;;;;;;;21.85;13.82;;;;;;;;;;10083307;28;20127;-75
2024/01/31 04:01:08;;;;;;;23.15;15.65;;;;;;;;;;10094098;28;20041;-77
2024/01/31 04:06:00;;;;;;;22.10;16.23;;;;;;;;;;10089105;28;20049;-76
2024/01/31 04:10:52;;;;;;;20.52;14.95;;;;;;;;;;10082415;28;20136;-76
2024/01/31 04:15:44;;;;;;;18.67;14.07;;;;;;;;;;10102350;28;20425;-76
2024/01/31 04:20:39;;;;;;;18.08;14.70;;;;;;;;;;10088566;28;20052;-76
2024/01/31 04:25:31;;;;;;;19.60;14.75;;;;;;;;;;10095459;28;20045;-77
2024/01/31 04:30:23;;;;;;;27.73;17.00;;;;;;;;;;10074621;28;20041;-76
2024/01/31 04:35:15;;;;;;;18.88;14.63;;;;;;;;;;10075359;28;20055;-76
2024/01/31 04:40:08;;;;;;;17.35;12.75;;;;;;;;;;10087730;28;20080;-76
2024/01/31 04:45:01;;;;;;;19.58;13.02;;;;;;;;;;10081393;28;20129;-77
2024/01/31 04:49:53;;;;;;;19.63;13.95;;;;;;;;;;10101504;28;20379;-76
2024/01/31 04:54:45;;;;;;;19.83;12.93;;;;;;;;;;10107339;28;20067;-76
2024/01/31 04:59:38;;;;;;;20.90;13.90;;;;;;;;;;10093214;28;20461;-76
2024/01/31 05:04:30;;;;;;;23.63;15.10;;;;;;;;;;10093926;28;20039;-76
2024/01/31 05:09:22;;;;;;;17.85;13.82;;;;;;;;;;10072601;28;20045;-77
2024/01/31 05:14:14;;;;;;;16.92;13.65;;;;;;;;;;10101557;28;20052;-77
2024/01/31 05:19:08;;;;;;;20.80;14.15;;;;;;;;;;10093447;28;20113;-77
2024/01/31 05:24:00;;;;;;;22.75;13.07;;;;;;;;;;10106738;28;20100;-76
2024/01/31 05:28:52;;;;;;;18.90;12.13;;;;;;;;;;10102614;28;20049;-77
2024/01/31 05:33:44;;;;;;;41.00;30.75;;;;;;;;;;10102582;28;20064;-77
2024/01/31 05:38:36;;;;;;;28.30;20.35;;;;;;;;;;10100949;28;20250;-77
2024/01/31 05:43:28;;;;;;;27.88;22.98;;;;;;;;;;10099604;28;20040;-77
2024/01/31 05:48:20;;;;;;;32.10;22.40;;;;;;;;;;10104020;28;20048;-76
2024/01/31 05:53:12;;;;;;;76.70;63.60;;;;;;;;;;10101691;28;20464;-77
2024/01/31 05:58:05;;;;;;;37.35;32.20;;;;;;;;;;10100336;28;20044;-76
2024/01/31 06:02:57;;;;;;;47.38;35.33;;;;;;;;;;10100599;28;20044;-76
2024/01/31 06:07:51;;;;;;;23.02;18.60;;;;;;;;;;10093254;28;20057;-76
2024/01/31 06:12:44;;;;;;;33.85;22.45;;;;;;;;;;10100429;28;20044;-76
2024/01/31 06:17:38;;;;;;;39.78;30.13;;;;;;;;;;10101647;28;20127;-76
2024/01/31 06:22:30;;;;;;;24.15;18.30;;;;;;;;;;10102804;28;20043;-77
2024/01/31 06:27:22;;;;;;;23.15;14.55;;;;;;;;;;10099820;28;20048;-77
2024/01/31 06:32:21;;;;;;;20.45;14.48;;;;;;;;;;10102555;28;20049;-77
2024/01/31 06:37:13;;;;;;;44.78;28.02;;;;;;;;;;10100713;28;20037;-77
2024/01/31 06:42:06;;;;;;;28.38;17.05;;;;;;;;;;10097698;28;20041;-77
2024/01/31 06:46:58;;;;;;;24.00;17.10;;;;;;;;;;10077229;28;20053;-77
2024/01/31 06:51:50;;;;;;;18.10;13.93;;;;;;;;;;10104092;28;20048;-77
2024/01/31 06:56:42;;;;;;;55.85;44.00;;;;;;;;;;10100086;28;20045;-76
2024/01/31 07:01:35;;;;;;;36.70;25.90;;;;;;;;;;10099929;28;20048;-78
2024/01/31 07:06:27;;;;;;;28.98;21.70;;;;;;;;;;10100336;28;20045;-77
2024/01/31 07:11:18;;;;;;;25.00;17.73;;;;;;;;;;10100296;28;20037;-77
2024/01/31 07:16:10;;;;;;;17.70;13.02;;;;;;;;;;10098800;28;20052;-77
2024/01/31 07:21:02;;;;;;;47.95;28.08;;;;;;;;;;10099099;28;20052;-77
2024/01/31 07:25:54;;;;;;;17.48;13.98;;;;;;;;;;10100202;28;20479;-76
2024/01/31 07:30:47;;;;;;;37.08;22.08;;;;;;;;;;10099640;28;20746;-77
2024/01/31 07:35:38;;;;;;;51.58;33.17;;;;;;;;;;10100669;28;20523;-77
2024/01/31 07:40:30;;;;;;;20.02;13.10;;;;;;;;;;10105412;28;20118;-77
2024/01/31 07:45:22;;;;;;;17.83;12.52;;;;;;;;;;10102230;28;20419;-77
2024/01/31 07:50:14;;;;;;;16.90;12.55;;;;;;;;;;10106797;28;20076;-78
2024/01/31 07:55:08;;;;;;;17.52;11.70;;;;;;;;;;10102370;28;20055;-77
2024/01/31 08:00:00;;;;;;;17.55;11.77;;;;;;;;;;10102389;28;20464;-78
2024/01/31 08:04:55;;;;;;;19.15;12.60;;;;;;;;;;10101990;28;20077;-78
2024/01/31 08:09:47;;;;;;;17.45;13.82;;;;;;;;;;10103715;28;20751;-77
2024/01/31 08:14:38;;;;;;;17.42;13.63;;;;;;;;;;10105313;28;20128;-78
2024/01/31 08:19:30;;;;;;;17.88;14.68;;;;;;;;;;10105210;28;20045;-78
2024/01/31 08:24:22;;;;;;;19.17;15.15;;;;;;;;;;10105248;28;20049;-78
2024/01/31 08:29:14;;;;;;;25.65;22.63;;;;;;;;;;10103282;28;20051;-78
2024/01/31 08:34:18;;;;;;;28.27;21.30;;;;;;;;;;10102021;28;20045;-77
2024/01/31 08:39:10;;;;;;;24.10;15.73;;;;;;;;;;10103778;28;20064;-77
2024/01/31 08:44:02;;;;;;;23.55;15.80;;;;;;;;;;10099669;28;20041;-77
2024/01/31 08:48:54;;;;;;;27.23;14.63;;;;;;;;;;10094326;28;20094;-77
2024/01/31 08:53:46;;;;;;;25.02;15.57;;;;;;;;;;10103788;28;20044;-77
2024/01/31 08:58:38;;;;;;;24.48;16.00;;;;;;;;;;10101944;28;20083;-77
2024/01/31 09:03:30;;;;;;;21.55;15.35;;;;;;;;;;10101666;28;20037;-77
2024/01/31 09:08:22;;;;;;;21.85;15.35;;;;;;;;;;10103612;28;20041;-77
2024/01/31 09:13:14;;;;;;;25.10;16.27;;;;;;;;;;10095460;28;20037;-76
2024/01/31 09:18:06;;;;;;;28.58;16.27;;;;;;;;;;10102819;28;20049;-77
2024/01/31 09:22:58;;;;;;;24.95;16.33;;;;;;;;;;10102606;28;20329;-77
2024/01/31 09:27:50;;;;;;;19.95;14.55;;;;;;;;;;10102745;28;20072;-77
2024/01/31 09:32:41;;;;;;;19.67;14.45;;;;;;;;;;10102198;28;20044;-77
2024/01/31 09:37:33;;;;;;;21.00;14.82;;;;;;;;;;10101676;28;20490;-76
2024/01/31 09:42:29;;;;;;;21.33;14.75;;;;;;;;;;10097632;28;20067;-77
2024/01/31 09:47:23;;;;;;;22.25;14.88;;;;;;;;;;10101565;28;20040;-76
2024/01/31 09:52:18;;;;;;;23.42;15.00;;;;;;;;;;10100152;28;20094;-77
2024/01/31 09:57:10;;;;;;;19.70;13.93;;;;;;;;;;10101468;28;20049;-77
2024/01/31 10:02:02;;;;;;;32.85;18.13;;;;;;;;;;10098451;28;20076;-77
2024/01/31 10:06:54;;;;;;;24.33;18.30;;;;;;;;;;10099661;28;20053;-76
2024/01/31 10:11:46;;;;;;;26.60;16.45;;;;;;;;;;10101047;28;20033;-77
2024/01/31 10:16:41;;;;;;;23.85;15.77;;;;;;;;;;10100921;28;20479;-77
2024/01/31 10:21:33;;;;;;;27.88;16.52;;;;;;;;;;10100248;28;20090;-76
2024/01/31 10:26:26;;;;;;;25.13;15.20;;;;;;;;;;10100612;28;20041;-76
2024/01/31 10:31:18;;;;;;;24.15;16.13;;;;;;;;;;10099742;28;20044;-76
2024/01/31 10:36:10;;;;;;;20.92;16.30;;;;;;;;;;10098218;28;20036;-76
2024/01/31 10:41:08;;;;;;;31.85;18.00;;;;;;;;;;10099627;28;20061;-76
2024/01/31 10:46:01;;;;;;;22.52;15.27;;;;;;;;;;10098955;28;20037;-76
2024/01/31 10:50:53;;;;;;;26.40;17.92;;;;;;;;;;10100006;28;20319;-76
2024/01/31 10:55:46;;;;;;;27.08;17.40;;;;;;;;;;10095719;28;20045;-76
2024/01/31 11:00:45;;;;;;;21.55;15.68;;;;;;;;;;10095149;28;20053;-76
2024/01/31 11:05:39;;;;;;;23.10;14.23;;;;;;;;;;10099536;28;20135;-76
2024/01/31 11:10:31;;;;;;;20.95;15.77;;;;;;;;;;10099164;28;20047;-76
2024/01/31 11:15:30;;;;;;;20.15;15.18;;;;;;;;;;10108020;28;20068;-76
2024/01/31 11:20:23;;;;;;;22.10;15.32;;;;;;;;;;10107021;28;20056;-75
2024/01/31 11:25:14;;;;;;;22.75;14.63;;;;;;;;;;10106209;28;20132;-76
2024/01/31 11:30:07;;;;;;;26.40;15.35;;;;;;;;;;10106861;28;20041;-76
2024/01/31 11:35:06;;;;;;;21.83;14.52;;;;;;;;;;10106506;28;20079;-74
2024/01/31 11:39:58;;;;;;;27.33;16.55;;;;;;;;;;10106631;28;20076;-74
2024/01/31 11:44:52;;;;;;;24.83;16.02;;;;;;;;;;10102951;28;20044;-74
2024/01/31 11:49:44;;;;;;;28.02;18.10;;;;;;;;;;10106261;28;20112;-74
2024/01/31 11:54:36;;;;;;;29.38;16.67;;;;;;;;;;10105521;28;20045;-74
2024/01/31 11:59:28;;;;;;;28.70;16.75;;;;;;;;;;10105395;28;20056;-74
2024/01/31 12:04:22;;;;;;;26.33;17.15;;;;;;;;;;10104891;28;20040;-74
2024/01/31 12:09:15;;;;;;;23.15;15.32;;;;;;;;;;10104813;28;20084;-74
2024/01/31 12:14:08;;;;;;;25.67;17.85;;;;;;;;;;10098029;28;20371;-74
2024/01/31 12:19:00;;;;;;;24.50;17.08;;;;;;;;;;10105064;28;20049;-74
2024/01/31 12:23:53;;;;;;;29.27;19.52;;;;;;;;;;10102167;28;20103;-75
2024/01/31 12:28:54;;;;;;;28.23;17.60;;;;;;;;;;10105045;28;20049;-74
2024/01/31 12:33:46;;;;;;;22.05;16.48;;;;;;;;;;10102779;28;20098;-74
2024/01/31 12:38:38;;;;;;;26.85;18.77;;;;;;;;;;10102284;28;20399;-74
2024/01/31 12:43:31;;;;;;;27.85;17.13;;;;;;;;;;10100431;28;20128;-74
2024/01/31 12:48:24;;;;;;;26.30;18.80;;;;;;;;;;10104714;28;20045;-74
2024/01/31 12:53:16;;;;;;;27.77;17.95;;;;;;;;;;10101505;28;20053;-75
2024/01/31 12:58:08;;;;;;;26.25;17.95;;;;;;;;;;10087713;28;20066;-76
2024/01/31 13:03:00;;;;;;;29.73;18.27;;;;;;;;;;10104978;28;20546;-76
2024/01/31 13:07:52;;;;;;;31.15;20.15;;;;;;;;;;10104429;28;20071;-76
2024/01/31 13:12:44;;;;;;;28.33;19.33;;;;;;;;;;10096603;28;20055;-76
2024/01/31 13:17:36;;;;;;;27.52;19.73;;;;;;;;;;10105247;28;20123;-76
2024/01/31 13:22:29;;;;;;;22.95;18.05;;;;;;;;;;10102272;28;20144;-75
2024/01/31 13:27:21;;;;;;;30.23;20.38;;;;;;;;;;10102792;28;20060;-75
2024/01/31 13:32:13;;;;;;;26.65;20.35;;;;;;;;;;10102160;28;20059;-74
2024/01/31 13:37:06;;;;;;;33.45;21.90;;;;;;;;;;10102654;28;20128;-75
2024/01/31 13:42:02;;;;;;;26.10;19.63;;;;;;;;;;10102665;28;20095;-75
2024/01/31 13:46:54;;;;;;;27.00;20.23;;;;;;;;;;10103785;28;20102;-75
2024/01/31 13:51:46;;;;;;;29.73;20.77;;;;;;;;;;10102860;28;20044;-75
2024/01/31 13:56:38;;;;;;;26.17;19.95;;;;;;;;;;10102933;28;20076;-75
2024/01/31 14:01:31;;;;;;;26.20;19.30;;;;;;;;;;10102492;28;20139;-75
2024/01/31 14:06:23;;;;;;;32.22;20.35;;;;;;;;;;10102433;28;20106;-75
2024/01/31 14:11:18;;;;;;;27.63;20.33;;;;;;;;;;10102418;28;20435;-74
2024/01/31 14:16:14;;;;;;;28.38;20.60;;;;;;;;;;10098927;28;20543;-75
2024/01/31 14:21:08;;;;;;;27.17;18.90;;;;;;;;;;10101623;28;20061;-74
2024/01/31 14:26:00;;;;;;;24.83;17.75;;;;;;;;;;10102181;28;20472;-75
2024/01/31 14:30:51;;;;;;;24.17;16.25;;;;;;;;;;10101578;28;20099;-76
2024/01/31 14:35:43;;;;;;;22.27;16.05;;;;;;;;;;10101811;28;20041;-75
2024/01/31 14:40:36;;;;;;;35.90;17.65;;;;;;;;;;10102873;28;20091;-75
2024/01/31 14:45:28;;;;;;;26.95;18.25;;;;;;;;;;10093815;28;20094;-75
2024/01/31 14:50:20;;;;;;;23.70;16.80;;;;;;;;;;10102017;28;20041;-75
2024/01/31 14:55:11;;;;;;;32.38;19.83;;;;;;;;;;10101677;28;20116;-74
2024/01/31 15:00:04;;;;;;;27.75;18.17;;;;;;;;;;10101131;28;20044;-75
2024/01/31 15:04:56;;;;;;;32.60;19.17;;;;;;;;;;10098925;28;20053;-75
2024/01/31 15:09:48;;;;;;;27.90;18.05;;;;;;;;;;10099117;28;20079;-75
2024/01/31 15:14:41;;;;;;;28.27;18.60;;;;;;;;;;10096817;28;20079;-75
2024/01/31 15:19:33;;;;;;;37.50;20.02;;;;;;;;;;10101977;28;20049;-75
2024/01/31 15:24:25;;;;;;;33.03;21.98;;;;;;;;;;10098505;28;20064;-75
2024/01/31 15:29:17;;;;;;;29.90;20.52;;;;;;;;;;10100386;28;20051;-75
2024/01/31 15:34:09;;;;;;;32.00;23.90;;;;;;;;;;10099757;28;20045;-74
2024/01/31 15:39:01;;;;;;;34.00;21.90;;;;;;;;;;10100310;28;20368;-76
2024/01/31 15:43:53;;;;;;;31.23;20.63;;;;;;;;;;10093698;28;20367;-74
2024/01/31 15:48:45;;;;;;;34.78;21.92;;;;;;;;;;10099171;28;20131;-74
2024/01/31 15:53:37;;;;;;;31.48;21.52;;;;;;;;;;10098902;28;20349;-74
2024/01/31 15:58:31;;;;;;;29.77;21.38;;;;;;;;;;10102322;28;20048;-75
2024/01/31 16:03:24;;;;;;;28.45;21.77;;;;;;;;;;10106396;28;20037;-74
2024/01/31 16:08:16;;;;;;;28.45;22.85;;;;;;;;;;10105829;28;20069;-75
2024/01/31 16:13:08;;;;;;;31.13;22.70;;;;;;;;;;10105864;28;20059;-75
2024/01/31 16:18:00;;;;;;;27.73;21.60;;;;;;;;;;10106735;28;20075;-75
2024/01/31 16:22:52;;;;;;;32.67;23.20;;;;;;;;;;10104440;28;20098;-75
2024/01/31 16:27:44;;;;;;;37.53;25.27;;;;;;;;;;10108545;28;20486;-73
2024/01/31 16:32:36;;;;;;;32.45;24.65;;;;;;;;;;10101876;28;20052;-74
2024/01/31 16:37:28;;;;;;;35.58;25.45;;;;;;;;;;10102515;28;20040;-75
2024/01/31 16:42:20;;;;;;;31.42;22.48;;;;;;;;;;10102534;28;20075;-75
2024/01/31 16:47:12;;;;;;;30.90;21.50;;;;;;;;;;10104225;28;20041;-74
2024/01/31 16:52:04;;;;;;;42.55;31.90;;;;;;;;;;10106798;28;20521;-73
2024/01/31 16:56:56;;;;;;;43.78;31.95;;;;;;;;;;10104777;28;20048;-74
2024/01/31 17:01:48;;;;;;;54.60;39.17;;;;;;;;;;10106245;28;20041;-74
2024/01/31 17:06:41;;;;;;;49.88;35.28;;;;;;;;;;10102513;28;20460;-75
2024/01/31 17:11:33;;;;;;;48.42;33.88;;;;;;;;;;10105291;28;20349;-72
2024/01/31 17:16:25;;;;;;;36.85;27.60;;;;;;;;;;10089377;28;20045;-72
2024/01/31 17:21:17;;;;;;;95.00;72.95;;;;;;;;;;10093285;28;20049;-72
2024/01/31 17:26:09;;;;;;;35.13;27.73;;;;;;;;;;10103555;28;20485;-72
2024/01/31 17:31:01;;;;;;;46.45;35.75;;;;;;;;;;10103396;28;20178;-72
2024/01/31 17:35:53;;;;;;;43.17;32.75;;;;;;;;;;10101419;28;20048;-72
2024/01/31 17:40:48;;;;;;;146.73;103.22;;;;;;;;;;10102131;28;20652;-72
2024/01/31 17:45:41;;;;;;;45.83;31.08;;;;;;;;;;10102898;28;20120;-73
2024/01/31 17:50:32;;;;;;;56.45;43.65;;;;;;;;;;10102383;28;20320;-72
2024/01/31 17:55:26;;;;;;;76.68;51.00;;;;;;;;;;10100898;28;21108;-74
2024/01/31 18:00:18;;;;;;;46.42;30.73;;;;;;;;;;10100257;28;20107;-72
2024/01/31 18:05:12;;;;;;;35.60;26.85;;;;;;;;;;10100264;28;20053;-72
2024/01/31 18:10:04;;;;;;;37.25;26.85;;;;;;;;;;10090763;28;20384;-71
2024/01/31 18:14:57;;;;;;;30.63;23.52;;;;;;;;;;10102301;28;20064;-71
2024/01/31 18:19:49;;;;;;;36.25;24.23;;;;;;;;;;10097332;28;20045;-71
2024/01/31 18:24:41;;;;;;;43.03;27.30;;;;;;;;;;10083648;28;20066;-71
2024/01/31 18:29:34;;;;;;;36.58;27.30;;;;;;;;;;10089818;28;20076;-71
2024/01/31 18:34:26;;;;;;;41.08;26.17;;;;;;;;;;10073096;28;20045;-71
2024/01/31 18:39:18;;;;;;;39.22;25.60;;;;;;;;;;10087303;28;20115;-73
2024/01/31 18:44:10;;;;;;;37.80;28.52;;;;;;;;;;10086492;28;20045;-71
2024/01/31 18:49:02;;;;;;;43.65;28.92;;;;;;;;;;10096907;28;20041;-71
2024/01/31 18:53:54;;;;;;;62.35;41.00;;;;;;;;;;10096458;28;20053;-71
2024/01/31 18:58:46;;;;;;;44.03;29.95;;;;;;;;;;10097666;28;20063;-72
2024/01/31 19:03:38;;;;;;;37.33;27.02;;;;;;;;;;10089771;28;20491;-71
2024/01/31 19:08:30;;;;;;;35.35;25.08;;;;;;;;;;10099442;28;20041;-71
2024/01/31 19:13:22;;;;;;;37.70;24.63;;;;;;;;;;10095215;28;20045;-71
2024/01/31 19:18:14;;;;;;;35.78;24.27;;;;;;;;;;10092501;28;20068;-70
2024/01/31 19:23:06;;;;;;;33.97;25.65;;;;;;;;;;10096071;28;20415;-71
2024/01/31 19:27:58;;;;;;;34.28;25.13;;;;;;;;;;10094763;28;20464;-71
2024/01/31 19:32:51;;;;;;;40.25;24.33;;;;;;;;;;10093020;28;20067;-71
2024/01/31 19:37:44;;;;;;;37.25;25.88;;;;;;;;;;10108396;28;20133;-70
2024/01/31 19:42:36;;;;;;;32.72;25.15;;;;;;;;;;10107450;28;20052;-70
2024/01/31 19:47:28;;;;;;;35.58;27.25;;;;;;;;;;10102255;28;20037;-70
2024/01/31 19:52:20;;;;;;;44.50;28.42;;;;;;;;;;10101223;28;20045;-71
2024/01/31 19:57:12;;;;;;;34.50;23.80;;;;;;;;;;10103801;28;20518;-71
2024/01/31 20:02:04;;;;;;;33.33;23.13;;;;;;;;;;10092639;28;20057;-70
2024/01/31 20:06:56;;;;;;;47.58;24.60;;;;;;;;;;10101346;28;20056;-71
2024/01/31 20:11:52;;;;;;;34.60;26.48;;;;;;;;;;10103523;28;20534;-72
2024/01/31 20:16:47;;;;;;;45.92;28.30;;;;;;;;;;10098453;28;20041;-71
2024/01/31 20:21:39;;;;;;;31.58;23.88;;;;;;;;;;10101839;28;20114;-72
2024/01/31 20:26:34;;;;;;;31.92;24.05;;;;;;;;;;10102603;28;20463;-71
2024/01/31 20:31:26;;;;;;;30.15;22.90;;;;;;;;;;10103698;28;20041;-73
2024/01/31 20:36:19;;;;;;;51.45;32.25;;;;;;;;;;10104366;28;20114;-73
2024/01/31 20:41:11;;;;;;;40.53;30.88;;;;;;;;;;10089712;28;20072;-71
2024/01/31 20:46:04;;;;;;;35.15;26.92;;;;;;;;;;10088564;28;20563;-73
2024/01/31 20:50:56;;;;;;;35.05;27.60;;;;;;;;;;10098805;28;20060;-73
2024/01/31 20:55:48;;;;;;;35.65;25.90;;;;;;;;;;10105776;28;20436;-71
2024/01/31 21:00:40;;;;;;;36.65;25.73;;;;;;;;;;10104135;28;20054;-71
2024/01/31 21:05:31;;;;;;;32.63;22.85;;;;;;;;;;10094466;28;20147;-72
2024/01/31 21:10:24;;;;;;;34.47;26.15;;;;;;;;;;10096362;28;20073;-72
2024/01/31 21:15:16;;;;;;;31.08;21.33;;;;;;;;;;10093245;28;20053;-71
2024/01/31 21:20:09;;;;;;;39.22;23.00;;;;;;;;;;10094725;28;20060;-72
2024/01/31 21:25:02;;;;;;;36.17;24.05;;;;;;;;;;10105618;28;20068;-72
2024/01/31 21:29:55;;;;;;;28.40;21.50;;;;;;;;;;10088374;28;20056;-72
2024/01/31 21:34:47;;;;;;;33.75;21.98;;;;;;;;;;10091905;28;20132;-72
2024/01/31 21:39:41;;;;;;;33.83;23.70;;;;;;;;;;10088500;28;20079;-72
2024/01/31 21:44:33;;;;;;;32.22;21.20;;;;;;;;;;10101241;28;20045;-72
2024/01/31 21:49:24;;;;;;;28.58;19.70;;;;;;;;;;10093137;28;20029;-72
2024/01/31 21:54:17;;;;;;;32.03;20.25;;;;;;;;;;10082789;28;20142;-71
2024/01/31 21:59:09;;;;;;;38.75;20.80;;;;;;;;;;10076506;28;20120;-71
2024/01/31 22:04:01;;;;;;;27.02;19.38;;;;;;;;;;10072192;28;20451;-72
2024/01/31 22:08:59;;;;;;;29.70;20.63;;;;;;;;;;10103846;28;20106;-72
2024/01/31 22:13:52;;;;;;;28.88;20.20;;;;;;;;;;10102874;28;20467;-72
2024/01/31 22:18:43;;;;;;;35.60;22.67;;;;;;;;;;10103738;28;20037;-72
2024/01/31 22:23:36;;;;;;;34.78;21.17;;;;;;;;;;10103782;28;20041;-72
2024/01/31 22:28:28;;;;;;;36.63;25.70;;;;;;;;;;10104742;28;20357;-71
2024/01/31 22:33:20;;;;;;;38.42;28.10;;;;;;;;;;10091794;28;20048;-71
2024/01/31 22:38:12;;;;;;;33.22;21.35;;;;;;;;;;10085527;28;20427;-72
2024/01/31 22:43:04;;;;;;;28.90;20.50;;;;;;;;;;10090703;28;20053;-72
2024/01/31 22:47:56;;;;;;;25.35;16.70;;;;;;;;;;10089016;28;20118;-71
2024/01/31 22:52:48;;;;;;;20.48;15.35;;;;;;;;;;10091056;28;20037;-71
2024/01/31 22:57:41;;;;;;;23.23;16.77;;;;;;;;;;10090668;28;20102;-71
2024/01/31 23:02:33;;;;;;;24.17;15.93;;;;;;;;;;10103535;28;20045;-69
2024/01/31 23:07:25;;;;;;;30.55;21.33;;;;;;;;;;10105612;28;20051;-70
2024/01/31 23:12:17;;;;;;;34.30;21.27;;;;;;;;;;10098251;28;20493;-70
2024/01/31 23:17:13;;;;;;;27.00;16.45;;;;;;;;;;10080745;28;20368;-71
2024/01/31 23:22:05;;;;;;;20.35;16.70;;;;;;;;;;10085560;28;20049;-71
2024/01/31 23:26:57;;;;;;;25.90;17.10;;;;;;;;;;10102538;28;20045;-72
2024/01/31 23:31:49;;;;;;;21.77;15.20;;;;;;;;;;10082140;28;20384;-72
2024/01/31 23:36:43;;;;;;;29.00;18.15;;;;;;;;;;10085150;28;20061;-72
2024/01/31 23:41:35;;;;;;;24.05;16.55;;;;;;;;;;10086157;28;20057;-72
2024/01/31 23:46:27;;;;;;;21.88;15.90;;;;;;;;;;10108549;28;20157;-72
2024/01/31 23:51:19;;;;;;;24.02;14.02;;;;;;;;;;10108362;28;20080;-72
2024/01/31 23:56:11;;;;;;;21.23;14.98;;;;;;;;;;10107643;28;20037;-72
